Time;durP1;ratioP1;P1;durP2;ratioP2;P2;SDS_P1;SDS_P2;PMS_P1;PMS_P2;Temp;Humidity;BMP_temperature;BMP_pressure;BME280_temperature;BME280_humidity;BME280_pressure;Samples;Min_cycle;Max_cycle;Signal;HPM_P1;HPM_P2
2022/04/05 00:02:14;;;;;;;27.05;10.45;;;;;;;3.02;100.00;100833.27;1739106;80;21082;-82
2022/04/05 00:04:41;;;;;;;26.42;9.63;;;;;;;2.94;100.00;100838.78;1726371;81;21207;-82
2022/04/05 00:07:07;;;;;;;22.82;9.00;;;;;;;2.89;100.00;100840.73;1729473;80;21023;-82
2022/04/05 00:09:33;;;;;;;25.20;9.25;;;;;;;2.86;100.00;100835.00;1729547;81;21113;-82
2022/04/05 00:12:01;;;;;;;20.80;8.58;;;;;;;2.83;100.00;100830.91;1740922;80;20983;-82
2022/04/05 00:14:27;;;;;;;24.12;9.63;;;;;;;2.81;100.00;100824.95;1736607;81;21038;-82
2022/04/05 00:16:53;;;;;;;20.15;8.65;;;;;;;2.77;100.00;100832.23;1749278;80;21057;-82
2022/04/05 00:19:20;;;;;;;16.37;7.87;;;;;;;2.65;100.00;100825.36;1729782;81;20988;-82
2022/04/05 00:21:48;;;;;;;21.52;9.15;;;;;;;2.56;100.00;100822.55;1748693;80;22085;-82
2022/04/05 00:24:17;;;;;;;23.02;8.68;;;;;;;2.51;100.00;100817.84;1730324;80;21074;-82
2022/04/05 00:26:44;;;;;;;19.25;8.80;;;;;;;2.44;100.00;100820.50;1716882;80;20987;-82
2022/04/05 00:29:10;;;;;;;17.67;8.20;;;;;;;2.39;100.00;100818.94;1713924;82;21109;-82
2022/04/05 00:31:36;;;;;;;24.65;9.53;;;;;;;2.33;100.00;100821.08;1727580;80;21018;-82
2022/04/05 00:34:03;;;;;;;22.82;9.20;;;;;;;2.24;100.00;100819.09;1755428;80;21075;-82
2022/04/05 00:36:29;;;;;;;21.20;9.53;;;;;;;2.18;100.00;100822.56;1711401;82;21038;-82
2022/04/05 00:38:55;;;;;;;20.45;8.53;;;;;;;2.14;100.00;100813.32;1712190;82;21036;-82
2022/04/05 00:41:22;;;;;;;21.55;9.30;;;;;;;2.09;100.00;100818.44;1713160;82;21077;-82
2022/04/05 00:43:48;;;;;;;18.20;8.83;;;;;;;2.03;100.00;100811.25;1708890;82;20999;-82
2022/04/05 00:46:14;;;;;;;20.37;9.20;;;;;;;1.98;100.00;100813.16;1712161;81;21987;-82
2022/04/05 00:48:57;;;;;;;22.62;8.70;;;;;;;1.96;100.00;100817.84;1712044;81;21094;-82
2022/04/05 00:51:25;;;;;;;21.40;8.97;;;;;;;1.91;100.00;100820.30;1691570;83;21490;-82
2022/04/05 00:53:54;;;;;;;19.05;8.45;;;;;;;1.85;100.00;100818.91;1702033;82;21118;-82
2022/04/05 00:56:22;;;;;;;16.77;8.38;;;;;;;1.79;100.00;100812.55;1706986;83;21460;-82
2022/04/05 00:58:52;;;;;;;19.48;8.75;;;;;;;1.77;100.00;100810.62;1697048;83;21121;-81
2022/04/05 01:01:22;;;;;;;17.82;8.73;;;;;;;1.75;100.00;100813.97;1692553;82;21856;-82
2022/04/05 01:03:50;;;;;;;23.00;9.08;;;;;;;1.75;100.00;100813.97;1687713;83;21015;-82
2022/04/05 01:06:21;;;;;;;18.75;8.18;;;;;;;1.74;100.00;100811.02;1698639;83;21036;-82
2022/04/05 01:08:47;;;;;;;20.55;8.90;;;;;;;1.74;100.00;100805.70;1659265;86;21117;-82
2022/04/05 01:11:14;;;;;;;18.35;8.55;;;;;;;1.75;100.00;100808.14;1664839;86;21128;-82
2022/04/05 01:13:40;;;;;;;16.62;8.10;;;;;;;1.75;100.00;100808.66;1664603;86;21144;-81
2022/04/05 01:16:06;;;;;;;18.37;8.63;;;;;;;1.73;100.00;100814.15;1667846;86;21144;-82
2022/04/05 01:18:34;;;;;;;16.65;8.03;;;;;;;1.71;100.00;100808.23;1664949;85;21142;-82
2022/04/05 01:21:01;;;;;;;19.25;8.28;;;;;;;1.72;100.00;100813.85;1666456;86;21121;-82
2022/04/05 01:23:27;;;;;;;16.95;8.15;;;;;;;1.72;100.00;100811.19;1663423;86;21109;-82
2022/04/05 01:25:53;;;;;;;17.52;7.92;;;;;;;1.71;100.00;100808.23;1664964;86;21078;-82
2022/04/05 01:28:20;;;;;;;16.90;8.28;;;;;;;1.71;100.00;100798.94;1663863;86;21089;-82
2022/04/05 01:30:46;;;;;;;21.17;8.80;;;;;;;1.71;100.00;100800.27;1667336;86;21229;-82
2022/04/05 01:33:14;;;;;;;18.92;7.70;;;;;;;1.72;100.00;100804.55;1666667;86;21205;-82
2022/04/05 01:35:40;;;;;;;18.02;7.83;;;;;;;1.73;100.00;100804.85;1664590;86;21137;-82
2022/04/05 01:38:11;;;;;;;18.85;8.00;;;;;;;1.74;100.00;100797.73;1663569;85;21129;-82
2022/04/05 01:40:38;;;;;;;21.25;9.15;;;;;;;1.74;100.00;100795.07;1668768;85;21526;-82
2022/04/05 01:43:05;;;;;;;19.37;8.28;;;;;;;1.75;100.00;100796.19;1673327;85;21432;-82
2022/04/05 01:45:32;;;;;;;24.00;8.73;;;;;;;1.77;100.00;100798.15;1671464;85;21521;-82
2022/04/05 01:47:58;;;;;;;20.90;8.83;;;;;;;1.77;100.00;100792.83;1671952;85;21155;-82
2022/04/05 01:50:24;;;;;;;22.25;9.35;;;;;;;1.77;100.00;100793.35;1671429;85;21002;-82
2022/04/05 01:52:51;;;;;;;23.45;8.90;;;;;;;1.78;100.00;100789.15;1648591;84;21250;-82
2022/04/05 01:55:17;;;;;;;17.20;8.53;;;;;;;1.76;100.00;100785.86;1672925;85;21315;-82
2022/04/05 01:57:43;;;;;;;18.85;9.00;;;;;;;1.74;100.00;100795.89;1671639;85;21022;-82
2022/04/05 02:00:14;;;;;;;20.75;9.48;;;;;;;1.74;100.00;100787.10;1672254;85;21090;-82
2022/04/05 02:02:38;;;;;;;23.20;9.90;;;;;;;1.74;100.00;100783.12;1629775;85;21575;-82
2022/04/05 02:05:06;;;;;;;24.75;9.60;;;;;;;1.71;100.00;100780.34;1671344;84;21034;-82
2022/04/05 02:07:32;;;;;;;23.45;10.38;;;;;;;1.67;100.00;100787.05;1671718;85;21121;-82
2022/04/05 02:09:58;;;;;;;21.37;10.18;;;;;;;1.61;100.00;100781.19;1671642;85;21209;-82
2022/04/05 02:12:24;;;;;;;22.22;9.33;;;;;;;1.54;100.00;100779.84;1718278;80;22129;-82
2022/04/05 02:14:51;;;;;;;24.67;10.50;;;;;;;1.46;100.00;100782.64;1739584;81;20995;-82
2022/04/05 02:17:17;;;;;;;23.40;10.78;;;;;;;1.36;100.00;100784.84;1734709;80;21031;-83
2022/04/05 02:19:44;;;;;;;21.27;10.60;;;;;;;1.30;100.00;100784.29;1732315;81;21050;-83
2022/04/05 02:22:10;;;;;;;22.52;10.30;;;;;;;1.25;100.00;100787.52;1734850;81;21005;-81
2022/04/05 02:24:36;;;;;;;22.37;10.38;;;;;;;1.18;100.00;100793.77;1737369;81;21290;-82
2022/04/05 02:27:03;;;;;;;21.35;10.63;;;;;;;1.06;100.00;100791.67;1717040;81;21047;-82
2022/04/05 02:29:30;;;;;;;27.25;10.63;;;;;;;0.99;100.00;100793.95;1725941;81;21464;-82
2022/04/05 02:31:56;;;;;;;23.42;10.63;;;;;;;0.93;100.00;100795.53;1716993;82;21574;-82
2022/04/05 02:34:22;;;;;;;23.90;11.45;;;;;;;0.86;100.00;100787.52;1753336;80;21043;-82
2022/04/05 02:36:49;;;;;;;23.60;10.98;;;;;;;0.79;100.00;100793.27;1746912;81;21183;-82
2022/04/05 02:39:15;;;;;;;23.70;10.90;;;;;;;0.70;100.00;100795.73;1700359;82;20999;-82
2022/04/05 02:41:41;;;;;;;25.95;11.85;;;;;;;0.61;100.00;100795.03;1740438;81;21037;-82
2022/04/05 02:44:08;;;;;;;22.10;10.03;;;;;;;0.51;100.00;100793.22;1713830;82;21260;-82
2022/04/05 02:46:34;;;;;;;24.72;10.72;;;;;;;0.39;100.00;100796.87;1718839;81;21106;-82
2022/04/05 02:49:00;;;;;;;27.62;11.20;;;;;;;0.29;100.00;100791.55;1733041;80;21142;-82
2022/04/05 02:51:27;;;;;;;20.45;10.45;;;;;;;0.20;100.00;100785.02;1724316;81;20975;-82
2022/04/05 02:53:53;;;;;;;28.23;12.43;;;;;;;0.13;100.00;100783.33;1732371;80;21524;-82
2022/04/05 02:56:19;;;;;;;26.42;10.88;;;;;;;0.04;100.00;100788.42;1725109;81;21039;-82
2022/04/05 02:58:48;;;;;;;21.50;9.68;;;;;;;-0.05;100.00;100791.68;1738000;80;21078;-82
2022/04/05 03:01:15;;;;;;;26.17;10.90;;;;;;;-0.11;100.00;100795.07;1740247;81;20943;-82
2022/04/05 03:03:41;;;;;;;29.25;11.95;;;;;;;-0.18;100.00;100785.70;1737629;80;21045;-83
2022/04/05 03:06:07;;;;;;;22.70;11.60;;;;;;;-0.22;100.00;100788.91;1749073;80;21027;-83
2022/04/05 03:08:33;;;;;;;23.92;11.43;;;;;;;-0.28;100.00;100794.44;1739781;80;21512;-83
2022/04/05 03:11:01;;;;;;;26.45;11.45;;;;;;;-0.34;100.00;100793.85;1746061;81;21566;-83
2022/04/05 03:13:27;;;;;;;24.60;10.32;;;;;;;-0.39;100.00;100796.22;1717895;82;21105;-83
2022/04/05 03:15:53;;;;;;;24.05;11.25;;;;;;;-0.43;100.00;100797.59;1745730;81;21007;-82
2022/04/05 03:18:20;;;;;;;29.35;12.07;;;;;;;-0.49;100.00;100799.14;1727785;80;21983;-83
2022/04/05 03:20:46;;;;;;;27.80;11.85;;;;;;;-0.54;100.00;100798.86;1734146;80;21078;-82
2022/04/05 03:23:12;;;;;;;29.45;12.40;;;;;;;-0.59;100.00;100800.75;1745588;80;21090;-83
2022/04/05 03:25:38;;;;;;;28.17;11.95;;;;;;;-0.64;100.00;100799.14;1751275;80;21340;-83
2022/04/05 03:28:05;;;;;;;24.43;10.38;;;;;;;-0.63;100.00;100798.12;1745085;80;21010;-83
2022/04/05 03:30:32;;;;;;;25.90;11.10;;;;;;;-0.63;100.00;100806.57;1754978;80;21066;-82
2022/04/05 03:32:58;;;;;;;22.70;10.68;;;;;;;-0.61;100.00;100800.09;1753293;80;21047;-83
2022/04/05 03:35:25;;;;;;;23.85;10.45;;;;;;;-0.58;100.00;100802.89;1723877;80;21074;-82
2022/04/05 03:37:52;;;;;;;22.32;9.80;;;;;;;-0.58;100.00;100806.86;1748190;80;21154;-83
2022/04/05 03:40:18;;;;;;;23.92;11.00;;;;;;;-0.56;100.00;100808.33;1738915;80;20983;-83
2022/04/05 03:42:44;;;;;;;25.82;11.05;;;;;;;-0.51;100.00;100807.25;1739944;80;21058;-83
2022/04/05 03:45:10;;;;;;;21.50;9.55;;;;;;;-0.48;100.00;100806.89;1737904;81;21015;-83
2022/04/05 03:47:37;;;;;;;28.32;11.93;;;;;;;-0.40;100.00;100813.12;1725384;81;21045;-83
2022/04/05 03:50:04;;;;;;;27.15;12.53;;;;;;;-0.32;100.00;100807.73;1736772;80;21783;-83
2022/04/05 03:52:30;;;;;;;31.33;13.88;;;;;;;-0.20;100.00;100810.23;1754463;80;20979;-82
2022/04/05 03:54:57;;;;;;;28.87;13.18;;;;;;;-0.06;100.00;100809.41;1748631;81;21022;-83
2022/04/05 03:57:23;;;;;;;35.45;15.35;;;;;;;0.07;100.00;100806.59;1747925;80;21225;-82
2022/04/05 03:59:49;;;;;;;37.93;16.75;;;;;;;0.21;100.00;100811.05;1749170;80;21245;-82
2022/04/05 04:02:15;;;;;;;36.53;15.68;;;;;;;0.32;100.00;100807.89;1728661;80;21888;-82
2022/04/05 04:04:42;;;;;;;35.92;13.80;;;;;;;0.48;100.00;100810.02;1731319;80;21043;-82
2022/04/05 04:07:08;;;;;;;32.83;12.33;;;;;;;0.71;100.00;100812.46;1744926;80;21023;-83
2022/04/05 04:09:34;;;;;;;23.05;10.63;;;;;;;1.21;100.00;100811.48;1677553;83;21258;-83
2022/04/05 04:12:01;;;;;;;21.80;10.10;;;;;;;2.56;100.00;100810.09;1693837;83;21014;-83
2022/04/05 04:14:27;;;;;;;21.73;9.58;;;;;;;4.17;100.00;100803.00;1693450;83;21794;-83
2022/04/05 04:16:53;;;;;;;19.52;9.00;;;;;;;5.70;100.00;100797.83;1685142;83;21018;-83
2022/04/05 04:19:20;;;;;;;18.40;9.55;;;;;;;7.17;100.00;100800.67;1682918;83;21129;-84
2022/04/05 04:21:46;;;;;;;20.55;9.80;;;;;;;8.50;100.00;100800.80;1685549;82;20964;-84
2022/04/05 04:24:12;;;;;;;20.68;9.40;;;;;;;9.53;100.00;100802.23;1675510;83;22208;-85
2022/04/05 04:26:38;;;;;;;17.77;8.25;;;;;;;10.58;100.00;100806.19;1691198;83;22062;-85
2022/04/05 04:29:05;;;;;;;13.93;7.45;;;;;;;11.62;87.78;100801.86;1680969;83;21512;-85
2022/04/05 04:31:32;;;;;;;20.17;8.65;;;;;;;12.55;77.98;100799.27;1683831;84;21093;-85
2022/04/05 04:33:58;;;;;;;20.48;9.00;;;;;;;13.36;68.15;100803.11;1663404;84;21722;-85
2022/04/05 04:36:25;;;;;;;15.90;8.43;;;;;;;13.88;63.01;100803.77;1675128;83;21073;-85
2022/04/05 04:38:52;;;;;;;18.23;8.38;;;;;;;14.67;62.22;100803.39;1695594;82;21666;-85
2022/04/05 04:41:21;;;;;;;17.23;8.55;;;;;;;15.57;55.79;100793.37;1698791;81;21066;-85
2022/04/05 04:43:48;;;;;;;19.87;10.25;;;;;;;16.07;52.99;100790.38;1707701;81;20999;-85
2022/04/05 04:46:14;;;;;;;18.40;9.58;;;;;;;16.77;51.39;100789.13;1710563;82;21008;-86
2022/04/05 04:48:41;;;;;;;20.70;9.20;;;;;;;17.38;49.07;100793.27;1714435;82;21682;-86
2022/04/05 04:51:08;;;;;;;13.38;8.50;;;;;;;17.83;47.04;100798.44;1707917;82;21615;-86
2022/04/05 04:53:34;;;;;;;15.15;8.95;;;;;;;18.38;44.28;100802.99;1714026;82;21063;-86
2022/04/05 04:56:01;;;;;;;14.18;8.10;;;;;;;18.56;42.31;100795.23;1697591;83;21590;-86
2022/04/05 04:58:27;;;;;;;16.80;8.83;;;;;;;18.84;42.00;100798.67;1708200;81;21100;-84
2022/04/05 05:00:53;;;;;;;14.05;8.55;;;;;;;19.28;40.10;100801.12;1696753;83;21235;-84
2022/04/05 05:03:19;;;;;;;13.80;8.18;;;;;;;19.86;39.79;100803.98;1701502;81;21028;-84
2022/04/05 05:05:46;;;;;;;13.45;7.87;;;;;;;20.37;38.88;100804.63;1705626;83;21052;-84
2022/04/05 05:08:12;;;;;;;11.40;8.13;;;;;;;20.74;37.90;100803.80;1660247;83;21055;-84
2022/04/05 05:10:38;;;;;;;15.03;7.33;;;;;;;20.95;36.36;100805.31;1747875;80;21027;-84
2022/04/05 05:13:05;;;;;;;14.78;7.60;;;;;;;20.86;35.61;100810.00;1703937;82;21148;-85
2022/04/05 05:15:31;;;;;;;16.32;7.72;;;;;;;20.99;35.33;100812.31;1724608;81;21831;-84
2022/04/05 05:17:57;;;;;;;12.63;7.65;;;;;;;21.19;35.31;100813.00;1703324;82;21097;-84
2022/04/05 05:20:24;;;;;;;13.08;9.03;;;;;;;21.54;34.76;100817.05;1731322;80;21047;-85
2022/04/05 05:22:50;;;;;;;12.43;8.58;;;;;;;21.77;33.50;100815.66;1733684;80;21082;-84
2022/04/05 05:25:16;;;;;;;15.32;8.40;;;;;;;21.63;32.73;100820.55;1743697;80;21018;-85
2022/04/05 05:27:42;;;;;;;12.93;7.65;;;;;;;21.63;32.45;100818.38;1745095;80;21100;-85
2022/04/05 05:30:12;;;;;;;13.28;8.18;;;;;;;21.37;31.78;100804.76;1692953;81;21178;-84
2022/04/05 05:32:46;;;;;;;14.80;7.58;;;;;;;21.38;31.52;100800.88;1695448;81;21149;-85
2022/04/05 05:35:17;;;;;;;13.70;7.45;;;;;;;21.82;32.33;100804.25;1637004;83;21148;-86
2022/04/05 05:37:45;;;;;;;13.75;7.30;;;;;;;22.25;31.56;100802.66;1685431;83;21006;-85
2022/04/05 05:40:12;;;;;;;13.45;7.05;;;;;;;22.69;31.22;100794.88;1691495;83;21157;-86
2022/04/05 05:42:50;;;;;;;11.15;7.42;;;;;;;23.17;30.98;100792.08;1671017;83;21479;-86
2022/04/05 05:45:17;;;;;;;10.82;6.90;;;;;;;23.16;28.98;100786.94;1674812;84;21109;-86
2022/04/05 05:47:43;;;;;;;11.73;7.30;;;;;;;22.52;29.60;100787.58;1661580;84;21057;-86
2022/04/05 05:50:12;;;;;;;15.10;7.75;;;;;;;23.12;29.98;100782.13;1670343;83;21066;-86
2022/04/05 05:52:43;;;;;;;12.98;7.22;;;;;;;23.66;28.77;100784.48;1688332;83;21055;-87
2022/04/05 05:55:14;;;;;;;13.98;7.33;;;;;;;23.89;27.65;100780.15;1724047;81;21503;-86
2022/04/05 05:57:41;;;;;;;9.45;7.00;;;;;;;23.97;26.25;100781.98;1746674;80;21047;-86
2022/04/05 06:00:10;;;;;;;12.82;6.83;;;;;;;24.06;27.23;100781.86;1748966;80;21208;-85
2022/04/05 06:02:41;;;;;;;12.80;6.42;;;;;;;24.53;27.53;100775.80;1735350;80;21101;-87
2022/04/05 06:05:09;;;;;;;10.13;6.15;;;;;;;24.84;25.90;100773.70;1720389;81;21069;-86
2022/04/05 06:07:35;;;;;;;9.83;5.83;;;;;;;25.15;25.35;100776.33;1729176;82;21061;-86
2022/04/05 06:10:05;;;;;;;9.70;6.30;;;;;;;25.00;24.87;100775.67;1728321;82;21064;-86
2022/04/05 06:12:31;;;;;;;10.95;5.40;;;;;;;25.10;25.37;100775.17;1626895;87;21559;-86
2022/04/05 06:14:58;;;;;;;7.50;4.87;;;;;;;25.64;25.22;100764.12;1631367;86;21046;-86
2022/04/05 06:17:24;;;;;;;8.10;5.30;;;;;;;25.69;24.58;100766.03;1627752;87;21140;-85
2022/04/05 06:19:52;;;;;;;10.68;5.33;;;;;;;25.16;23.68;100772.41;1626623;87;21158;-84
2022/04/05 06:22:19;;;;;;;10.05;5.58;;;;;;;23.79;23.73;100762.70;1599248;87;21146;-86
2022/04/05 06:24:46;;;;;;;14.55;5.78;;;;;;;21.66;23.74;100771.09;1591694;87;21057;-85
2022/04/05 06:27:13;;;;;;;11.25;5.10;;;;;;;19.92;25.13;100777.53;1596661;88;21093;-85
2022/04/05 06:29:42;;;;;;;12.63;6.00;;;;;;;18.51;26.31;100779.53;1592806;88;21124;-85
2022/04/05 06:32:08;;;;;;;10.68;5.40;;;;;;;17.54;27.05;100785.07;1577366;89;21113;-85
2022/04/05 06:34:35;;;;;;;13.18;6.15;;;;;;;16.57;27.72;100785.33;1571418;89;22297;-85
2022/04/05 06:37:01;;;;;;;13.83;6.30;;;;;;;15.66;28.59;100800.34;1569813;90;21098;-83
2022/04/05 06:39:28;;;;;;;13.13;6.60;;;;;;;14.76;29.26;100787.61;1565706;90;21044;-86
2022/04/05 06:41:56;;;;;;;11.88;6.20;;;;;;;14.08;30.35;100790.14;1568588;89;21193;-85
2022/04/05 06:44:22;;;;;;;15.20;6.62;;;;;;;13.34;31.25;100795.25;1572717;90;21121;-82
2022/04/05 06:46:48;;;;;;;13.22;6.95;;;;;;;12.70;32.21;100795.77;1571543;90;21244;-83
2022/04/05 06:49:15;;;;;;;18.98;6.80;;;;;;;12.07;33.20;100799.95;1578374;88;21188;-83
2022/04/05 06:51:41;;;;;;;15.30;7.20;;;;;;;11.64;34.21;100791.62;1581025;89;21045;-83
2022/04/05 06:54:09;;;;;;;14.90;6.97;;;;;;;11.31;35.02;100794.94;1593755;88;21554;-83
2022/04/05 06:56:35;;;;;;;17.37;8.40;;;;;;;10.85;35.30;100788.67;1601390;89;21043;-83
2022/04/05 06:59:01;;;;;;;21.95;9.50;;;;;;;10.56;36.03;100786.78;1601555;89;21083;-83
2022/04/05 07:01:28;;;;;;;21.25;9.65;;;;;;;10.34;36.89;100791.39;1609775;87;21122;-85
2022/04/05 07:03:54;;;;;;;17.42;9.40;;;;;;;10.27;37.64;100792.14;1616250;87;21623;-83
2022/04/05 07:06:20;;;;;;;17.67;8.93;;;;;;;10.22;37.90;100795.01;1629693;86;21131;-83
2022/04/05 07:08:49;;;;;;;18.17;7.90;;;;;;;9.93;38.38;100791.70;1625740;87;21024;-83
2022/04/05 07:11:15;;;;;;;14.05;7.45;;;;;;;9.84;38.83;100790.52;1627262;87;21083;-83
2022/04/05 07:13:41;;;;;;;17.02;7.67;;;;;;;9.79;40.07;100785.06;1636753;87;21142;-83
2022/04/05 07:16:07;;;;;;;16.05;7.72;;;;;;;9.82;39.92;100785.09;1639275;84;21278;-83
2022/04/05 07:18:34;;;;;;;14.00;6.85;;;;;;;9.79;40.28;100778.33;1692015;80;21134;-83
2022/04/05 07:21:02;;;;;;;13.28;7.22;;;;;;;9.72;40.75;100785.78;1747761;80;21617;-83
2022/04/05 07:23:28;;;;;;;18.12;6.42;;;;;;;9.59;40.79;100778.06;1745994;80;21550;-83
2022/04/05 07:25:54;;;;;;;15.45;6.80;;;;;;;9.44;41.40;100788.08;1738318;80;21661;-82
2022/04/05 07:28:21;;;;;;;13.20;6.37;;;;;;;9.25;41.09;100788.36;1739146;80;21099;-83
2022/04/05 07:30:47;;;;;;;13.03;6.50;;;;;;;8.91;41.61;100782.70;1743290;80;21041;-84
2022/04/05 07:33:13;;;;;;;13.78;6.80;;;;;;;8.69;42.31;100782.61;1725874;81;21539;-83
2022/04/05 07:35:39;;;;;;;18.52;6.92;;;;;;;8.55;42.59;100771.35;1739062;80;21559;-84
2022/04/05 07:38:06;;;;;;;17.12;7.28;;;;;;;8.51;43.29;100773.71;1724224;81;20991;-82
2022/04/05 07:40:47;;;;;;;14.25;6.72;;;;;;;8.48;43.43;100768.02;1730859;81;21551;-82
2022/04/05 07:43:18;;;;;;;20.88;6.78;;;;;;;8.39;43.13;100769.74;1745941;80;22163;-82
2022/04/05 07:45:44;;;;;;;13.18;6.62;;;;;;;8.45;43.61;100769.84;1723002;81;21007;-83
2022/04/05 07:48:11;;;;;;;14.23;6.30;;;;;;;8.53;43.46;100768.08;1726103;81;20991;-82
2022/04/05 07:50:37;;;;;;;12.47;5.92;;;;;;;8.72;43.57;100764.66;1733839;81;20948;-82
2022/04/05 07:53:04;;;;;;;15.75;7.08;;;;;;;9.01;43.39;100755.47;1728709;81;21210;-82
2022/04/05 07:55:30;;;;;;;12.53;7.05;;;;;;;9.60;43.98;100751.45;1720858;81;21106;-82
2022/04/05 07:57:56;;;;;;;13.38;6.78;;;;;;;10.58;42.83;100754.98;1732275;81;20946;-83
2022/04/05 08:00:23;;;;;;;13.25;6.55;;;;;;;11.58;42.50;100740.30;1728946;81;21594;-83
2022/04/05 08:02:50;;;;;;;20.70;6.75;;;;;;;12.99;40.43;100745.20;1728632;81;21079;-83
2022/04/05 08:05:17;;;;;;;11.50;6.58;;;;;;;14.21;37.74;100735.89;1735726;81;21019;-83
2022/04/05 08:07:44;;;;;;;13.55;6.62;;;;;;;15.11;37.70;100721.08;1731444;81;21090;-84
2022/04/05 08:10:10;;;;;;;14.00;6.78;;;;;;;16.37;36.86;100723.88;1731057;80;21588;-83
2022/04/05 08:12:42;;;;;;;16.17;7.30;;;;;;;17.77;36.22;100718.40;1734742;81;21069;-85
2022/04/05 08:15:12;;;;;;;19.37;10.13;;;;;;;19.00;34.53;100708.16;1726641;82;20981;-84
2022/04/05 08:17:38;;;;;;;17.80;8.68;;;;;;;19.57;32.61;100701.97;1711788;83;21073;-84
2022/04/05 08:20:06;;;;;;;13.08;6.90;;;;;;;19.63;33.65;100695.22;1710192;83;21215;-84
2022/04/05 08:22:32;;;;;;;12.20;6.30;;;;;;;19.92;31.85;100691.36;1710992;82;21124;-83
2022/04/05 08:24:59;;;;;;;10.18;6.05;;;;;;;20.15;31.56;100685.18;1708885;83;21669;-84
2022/04/05 08:27:26;;;;;;;12.68;6.00;;;;;;;19.74;31.27;100672.76;1715830;83;21629;-83
2022/04/05 08:29:53;;;;;;;10.65;5.55;;;;;;;19.04;31.38;100677.17;1712007;83;21435;-84
2022/04/05 08:32:19;;;;;;;9.68;5.70;;;;;;;18.57;32.97;100660.92;1705912;83;21991;-84
2022/04/05 08:34:46;;;;;;;9.18;5.47;;;;;;;19.37;34.01;100669.19;1710234;83;22741;-83
2022/04/05 08:37:13;;;;;;;9.25;5.40;;;;;;;20.11;33.20;100668.34;1707992;83;21106;-83
2022/04/05 08:39:41;;;;;;;11.08;6.00;;;;;;;20.23;31.99;100663.59;1713724;83;21041;-83
2022/04/05 08:42:08;;;;;;;10.38;6.00;;;;;;;19.52;32.74;100660.53;1704568;83;21028;-83
2022/04/05 08:44:35;;;;;;;9.00;5.08;;;;;;;19.21;33.36;100661.42;1699500;83;21713;-83
2022/04/05 08:47:03;;;;;;;9.55;5.15;;;;;;;18.65;32.80;100660.70;1696323;84;21161;-83
2022/04/05 08:49:31;;;;;;;10.85;5.20;;;;;;;17.79;33.55;100658.94;1647748;86;21172;-83
2022/04/05 08:51:57;;;;;;;10.40;5.55;;;;;;;16.80;34.94;100658.45;1647207;86;21067;-83
2022/04/05 08:54:24;;;;;;;11.38;5.05;;;;;;;16.13;35.59;100658.15;1646439;86;21039;-84
2022/04/05 08:56:50;;;;;;;10.93;4.87;;;;;;;15.37;36.30;100655.89;1671060;84;21130;-83
2022/04/05 08:59:17;;;;;;;10.05;4.62;;;;;;;14.48;37.72;100644.59;1667413;85;21075;-83
2022/04/05 09:01:44;;;;;;;9.00;5.25;;;;;;;14.05;38.76;100649.23;1699150;83;21065;-83
2022/04/05 09:04:10;;;;;;;13.05;4.90;;;;;;;13.84;39.17;100638.28;1680125;84;21600;-83
2022/04/05 09:06:37;;;;;;;9.33;4.90;;;;;;;13.59;40.10;100645.47;1682950;85;21077;-82
2022/04/05 09:09:13;;;;;;;9.43;4.90;;;;;;;13.46;40.80;100643.90;1717118;83;21122;-82
2022/04/05 09:11:52;;;;;;;9.63;4.72;;;;;;;13.28;41.11;100630.44;1711812;83;21499;-81
2022/04/05 09:14:27;;;;;;;9.35;4.70;;;;;;;13.00;41.80;100629.98;1734798;79;21071;-81
2022/04/05 09:17:14;;;;;;;11.60;4.85;;;;;;;12.77;42.65;100630.02;1774431;79;20976;-80
2022/04/05 09:19:46;;;;;;;9.93;4.92;;;;;;;12.59;43.60;100608.42;1711514;83;21086;-84
2022/04/05 09:22:13;;;;;;;14.13;4.60;;;;;;;13.67;44.35;100608.85;1724290;82;21130;-84
2022/04/05 09:24:45;;;;;;;9.40;5.08;;;;;;;14.65;42.66;100595.39;1720558;82;21523;-82
2022/04/05 09:27:12;;;;;;;12.07;4.90;;;;;;;14.57;40.79;100592.73;1722193;82;21553;-82
2022/04/05 09:29:43;;;;;;;9.05;5.12;;;;;;;14.57;40.79;100592.73;1697367;83;21618;-81
2022/04/05 09:32:14;;;;;;;9.13;5.17;;;;;;;14.08;40.80;100579.58;1703062;83;21509;-82
2022/04/05 09:34:51;;;;;;;10.38;4.87;;;;;;;13.55;42.10;100584.02;1624623;86;21842;-82
2022/04/05 09:37:26;;;;;;;11.15;5.30;;;;;;;13.44;42.67;100587.31;1616902;88;21182;-82
2022/04/05 09:39:54;;;;;;;12.88;5.75;;;;;;;13.26;42.74;100586.05;1621967;85;21717;-82
2022/04/05 09:42:20;;;;;;;14.95;6.12;;;;;;;13.17;42.86;100584.98;1654342;85;21043;-82
2022/04/05 09:44:46;;;;;;;10.20;4.97;;;;;;;13.02;43.03;100584.50;1659863;85;21020;-82
2022/04/05 09:47:17;;;;;;;11.70;5.60;;;;;;;12.75;43.38;100581.34;1658343;85;21945;-82
2022/04/05 09:49:46;;;;;;;8.85;4.97;;;;;;;12.36;43.79;100584.66;1652757;84;22341;-82
2022/04/05 09:52:29;;;;;;;11.43;5.30;;;;;;;12.03;44.78;100590.89;1642211;86;21075;-82
2022/04/05 09:55:14;;;;;;;10.23;4.87;;;;;;;11.74;46.64;100576.52;1651124;85;20985;-82
2022/04/05 09:57:42;;;;;;;14.63;6.03;;;;;;;11.53;47.59;100576.18;1639702;85;21099;-82
2022/04/05 10:00:18;;;;;;;12.82;5.58;;;;;;;11.43;47.53;100573.47;1647535;85;21231;-82
2022/04/05 10:03:05;;;;;;;9.05;4.90;;;;;;;11.49;47.69;100569.70;1648458;85;20989;-81
2022/04/05 10:05:34;;;;;;;13.35;5.37;;;;;;;11.71;47.78;100560.85;1627836;86;21101;-81
2022/04/05 10:08:01;;;;;;;13.93;6.03;;;;;;;11.88;46.61;100562.50;1611629;87;21126;-82
2022/04/05 10:10:28;;;;;;;15.68;7.20;;;;;;;11.86;45.94;100546.58;1629751;86;21104;-82
2022/04/05 10:12:54;;;;;;;10.53;5.42;;;;;;;11.73;45.80;100546.52;1692245;83;22074;-81
2022/04/05 10:15:22;;;;;;;15.20;5.87;;;;;;;11.59;45.78;100545.45;1667459;83;21495;-81
2022/04/05 10:17:53;;;;;;;11.08;5.87;;;;;;;11.67;46.39;100550.30;1693529;84;21521;-84
2022/04/05 10:20:20;;;;;;;11.25;5.30;;;;;;;11.77;46.53;100538.17;1652667;85;21102;-83
2022/04/05 10:22:56;;;;;;;10.75;5.22;;;;;;;12.03;46.58;100528.22;1651717;85;21114;-83
2022/04/05 10:25:23;;;;;;;11.25;5.60;;;;;;;12.34;46.44;100517.91;1646263;85;21556;-82
2022/04/05 10:27:50;;;;;;;12.88;6.17;;;;;;;12.56;45.67;100503.55;1660540;85;21062;-82
2022/04/05 10:30:28;;;;;;;8.70;5.12;;;;;;;12.73;45.75;100505.38;1661478;85;21041;-83
2022/04/05 10:33:11;;;;;;;11.48;5.45;;;;;;;12.78;44.67;100509.14;1678835;84;21089;-83
2022/04/05 10:35:45;;;;;;;12.60;5.05;;;;;;;12.57;44.29;100512.45;1656915;85;21188;-82
2022/04/05 10:38:18;;;;;;;11.12;5.42;;;;;;;12.23;44.90;100509.81;1609208;87;21236;-82
2022/04/05 10:41:04;;;;;;;13.43;5.55;;;;;;;12.00;45.34;100503.62;1588078;88;21030;-82
2022/04/05 10:43:31;;;;;;;10.50;5.28;;;;;;;11.69;45.46;100500.11;1586925;88;21093;-81
2022/04/05 10:45:57;;;;;;;9.80;5.10;;;;;;;11.53;46.56;100501.45;1587701;88;21030;-81
2022/04/05 10:48:27;;;;;;;21.60;5.05;;;;;;;11.44;46.49;100492.78;1636088;86;21120;-82
2022/04/05 10:51:07;;;;;;;10.75;5.42;;;;;;;11.16;47.41;100498.14;1633482;87;21118;-82
2022/04/05 10:56:14;;;;;;;8.63;4.37;;;;;;;11.05;50.47;100492.70;1585601;90;21515;-82
2022/04/05 10:58:54;;;;;;;8.13;4.47;;;;;;;11.54;50.68;100487.41;1586263;90;21068;-82
2022/04/05 11:01:45;;;;;;;7.67;4.37;;;;;;;11.94;49.73;100478.54;1580238;90;21122;-82
2022/04/05 11:04:18;;;;;;;15.10;5.45;;;;;;;12.14;48.87;100471.47;1588528;89;21259;-83
2022/04/05 11:07:09;;;;;;;7.55;3.55;;;;;;;12.24;48.44;100464.71;1588294;90;21125;-82
2022/04/05 11:09:52;;;;;;;9.30;4.17;;;;;;;12.20;47.28;100459.02;1570996;90;21041;-83
2022/04/05 11:12:24;;;;;;;11.17;4.70;;;;;;;12.03;47.15;100470.70;1578993;89;21000;-82
2022/04/05 11:15:03;;;;;;;9.50;4.12;;;;;;;11.92;47.50;100473.94;1579081;89;21345;-82
2022/04/05 11:17:28;;;;;;;11.75;4.08;;;;;;;12.00;48.14;100455.84;1564277;90;21061;-81
2022/04/05 11:19:58;;;;;;;10.32;4.22;;;;;;;12.21;48.55;100460.66;1574225;89;21077;-81
2022/04/05 11:22:30;;;;;;;7.97;4.40;;;;;;;12.47;47.08;100455.16;1562296;90;33366;-81
2022/04/05 11:25:09;;;;;;;10.28;4.28;;;;;;;12.70;47.50;100446.97;1559119;90;21097;-82